sensor_id;sensor_type;location;lat;lon;timestamp;P1;durP1;ratioP1;P2;durP2;ratioP2
80344;SDS011;69658;44.498;0.166;2023-07-31T00:05:15;5.30;;;1.60;;
80344;SDS011;69658;44.498;0.166;2023-07-31T00:10:47;7.67;;;1.67;;
80344;SDS011;69658;44.498;0.166;2023-07-31T00:16:20;4.60;;;1.53;;
80344;SDS011;69658;44.498;0.166;2023-07-31T00:21:53;5.07;;;1.90;;
80344;SDS011;69658;44.498;0.166;2023-07-31T00:27:26;3.43;;;1.90;;
80344;SDS011;69658;44.498;0.166;2023-07-31T00:32:59;4.03;;;1.50;;
80344;SDS011;69658;44.498;0.166;2023-07-31T00:38:32;3.80;;;1.63;;
80344;SDS011;69658;44.498;0.166;2023-07-31T00:44:06;6.47;;;1.87;;
80344;SDS011;69658;44.498;0.166;2023-07-31T00:49:38;5.63;;;1.67;;
80344;SDS011;69658;44.498;0.166;2023-07-31T00:55:10;4.60;;;2.17;;
80344;SDS011;69658;44.498;0.166;2023-07-31T01:00:42;3.83;;;1.23;;
80344;SDS011;69658;44.498;0.166;2023-07-31T01:06:16;3.80;;;1.33;;
80344;SDS011;69658;44.498;0.166;2023-07-31T01:11:50;3.73;;;1.53;;
80344;SDS011;69658;44.498;0.166;2023-07-31T01:17:20;6.57;;;1.90;;
80344;SDS011;69658;44.498;0.166;2023-07-31T01:22:58;5.47;;;1.40;;
80344;SDS011;69658;44.498;0.166;2023-07-31T01:28:29;4.23;;;1.80;;
80344;SDS011;69658;44.498;0.166;2023-07-31T01:34:00;4.30;;;1.47;;
80344;SDS011;69658;44.498;0.166;2023-07-31T01:39:31;4.10;;;1.40;;
80344;SDS011;69658;44.498;0.166;2023-07-31T01:45:04;5.87;;;1.90;;
80344;SDS011;69658;44.498;0.166;2023-07-31T01:50:36;3.63;;;1.73;;
80344;SDS011;69658;44.498;0.166;2023-07-31T01:56:09;3.40;;;1.60;;
80344;SDS011;69658;44.498;0.166;2023-07-31T02:01:41;4.20;;;1.73;;
80344;SDS011;69658;44.498;0.166;2023-07-31T02:07:14;2.13;;;1.23;;
80344;SDS011;69658;44.498;0.166;2023-07-31T02:12:48;2.83;;;1.27;;
80344;SDS011;69658;44.498;0.166;2023-07-31T02:18:19;3.53;;;1.97;;
80344;SDS011;69658;44.498;0.166;2023-07-31T02:23:51;3.70;;;1.23;;
80344;SDS011;69658;44.498;0.166;2023-07-31T02:29:24;5.77;;;1.23;;
80344;SDS011;69658;44.498;0.166;2023-07-31T02:34:57;4.80;;;1.60;;
80344;SDS011;69658;44.498;0.166;2023-07-31T02:40:30;2.93;;;1.73;;
80344;SDS011;69658;44.498;0.166;2023-07-31T02:46:02;3.93;;;1.40;;
80344;SDS011;69658;44.498;0.166;2023-07-31T02:51:34;6.27;;;2.03;;
80344;SDS011;69658;44.498;0.166;2023-07-31T02:57:06;4.73;;;1.40;;
80344;SDS011;69658;44.498;0.166;2023-07-31T03:02:38;3.40;;;1.70;;
80344;SDS011;69658;44.498;0.166;2023-07-31T03:08:10;4.80;;;1.90;;
80344;SDS011;69658;44.498;0.166;2023-07-31T03:13:43;4.20;;;1.93;;
80344;SDS011;69658;44.498;0.166;2023-07-31T03:19:16;5.70;;;1.97;;
80344;SDS011;69658;44.498;0.166;2023-07-31T03:24:50;4.20;;;2.00;;
80344;SDS011;69658;44.498;0.166;2023-07-31T03:30:23;3.90;;;1.17;;
80344;SDS011;69658;44.498;0.166;2023-07-31T03:35:55;7.43;;;1.67;;
80344;SDS011;69658;44.498;0.166;2023-07-31T03:41:29;2.77;;;1.23;;
80344;SDS011;69658;44.498;0.166;2023-07-31T03:47:03;2.53;;;1.50;;
80344;SDS011;69658;44.498;0.166;2023-07-31T03:52:34;4.27;;;1.60;;
80344;SDS011;69658;44.498;0.166;2023-07-31T03:58:07;5.67;;;1.90;;
80344;SDS011;69658;44.498;0.166;2023-07-31T04:03:39;3.03;;;1.53;;
80344;SDS011;69658;44.498;0.166;2023-07-31T04:09:13;5.97;;;2.00;;
80344;SDS011;69658;44.498;0.166;2023-07-31T04:14:44;4.43;;;2.23;;
80344;SDS011;69658;44.498;0.166;2023-07-31T04:20:16;8.33;;;2.50;;
80344;SDS011;69658;44.498;0.166;2023-07-31T04:25:49;6.03;;;2.97;;
80344;SDS011;69658;44.498;0.166;2023-07-31T04:31:22;3.60;;;1.77;;
80344;SDS011;69658;44.498;0.166;2023-07-31T04:36:55;11.67;;;3.00;;
80344;SDS011;69658;44.498;0.166;2023-07-31T04:42:29;3.57;;;1.90;;
80344;SDS011;69658;44.498;0.166;2023-07-31T04:48:02;3.80;;;1.60;;
80344;SDS011;69658;44.498;0.166;2023-07-31T04:53:34;7.27;;;3.20;;
80344;SDS011;69658;44.498;0.166;2023-07-31T04:59:08;4.13;;;2.40;;
80344;SDS011;69658;44.498;0.166;2023-07-31T05:04:40;9.07;;;2.40;;
80344;SDS011;69658;44.498;0.166;2023-07-31T05:10:13;6.33;;;2.60;;
80344;SDS011;69658;44.498;0.166;2023-07-31T05:15:45;5.20;;;2.33;;
80344;SDS011;69658;44.498;0.166;2023-07-31T05:21:18;7.33;;;2.17;;
80344;SDS011;69658;44.498;0.166;2023-07-31T05:26:51;5.17;;;1.90;;
80344;SDS011;69658;44.498;0.166;2023-07-31T05:32:25;3.60;;;1.80;;
80344;SDS011;69658;44.498;0.166;2023-07-31T05:37:58;3.17;;;1.87;;
80344;SDS011;69658;44.498;0.166;2023-07-31T05:43:32;9.73;;;3.10;;
80344;SDS011;69658;44.498;0.166;2023-07-31T05:49:05;5.60;;;1.97;;
80344;SDS011;69658;44.498;0.166;2023-07-31T05:54:39;3.47;;;2.37;;
80344;SDS011;69658;44.498;0.166;2023-07-31T06:00:12;5.23;;;1.70;;
80344;SDS011;69658;44.498;0.166;2023-07-31T06:05:45;6.07;;;1.77;;
80344;SDS011;69658;44.498;0.166;2023-07-31T06:11:19;4.63;;;2.07;;
80344;SDS011;69658;44.498;0.166;2023-07-31T06:16:51;3.97;;;1.67;;
80344;SDS011;69658;44.498;0.166;2023-07-31T06:22:25;6.10;;;2.00;;
80344;SDS011;69658;44.498;0.166;2023-07-31T06:27:58;8.10;;;2.27;;
80344;SDS011;69658;44.498;0.166;2023-07-31T06:33:31;4.23;;;2.17;;
80344;SDS011;69658;44.498;0.166;2023-07-31T06:39:04;7.27;;;3.40;;
80344;SDS011;69658;44.498;0.166;2023-07-31T06:44:37;13.90;;;3.57;;
80344;SDS011;69658;44.498;0.166;2023-07-31T06:50:08;13.27;;;3.23;;
80344;SDS011;69658;44.498;0.166;2023-07-31T06:55:41;13.63;;;3.43;;
80344;SDS011;69658;44.498;0.166;2023-07-31T07:01:14;10.50;;;3.40;;
80344;SDS011;69658;44.498;0.166;2023-07-31T07:06:46;6.13;;;2.67;;
80344;SDS011;69658;44.498;0.166;2023-07-31T07:12:18;6.60;;;2.43;;
80344;SDS011;69658;44.498;0.166;2023-07-31T07:17:50;7.63;;;3.33;;
80344;SDS011;69658;44.498;0.166;2023-07-31T07:23:22;14.80;;;3.40;;
80344;SDS011;69658;44.498;0.166;2023-07-31T07:28:56;15.37;;;3.97;;
80344;SDS011;69658;44.498;0.166;2023-07-31T07:34:29;5.53;;;2.40;;
80344;SDS011;69658;44.498;0.166;2023-07-31T07:40:02;6.50;;;1.97;;
80344;SDS011;69658;44.498;0.166;2023-07-31T07:45:36;6.65;;;2.50;;
80344;SDS011;69658;44.498;0.166;2023-07-31T07:51:09;6.95;;;2.95;;
80344;SDS011;69658;44.498;0.166;2023-07-31T07:56:43;7.65;;;2.40;;
80344;SDS011;69658;44.498;0.166;2023-07-31T08:02:16;3.65;;;2.40;;
80344;SDS011;69658;44.498;0.166;2023-07-31T08:07:49;5.55;;;2.50;;
80344;SDS011;69658;44.498;0.166;2023-07-31T08:13:21;5.90;;;2.55;;
80344;SDS011;69658;44.498;0.166;2023-07-31T08:18:54;5.00;;;2.10;;
80344;SDS011;69658;44.498;0.166;2023-07-31T08:24:27;10.10;;;3.30;;
80344;SDS011;69658;44.498;0.166;2023-07-31T08:30:07;6.15;;;2.40;;
80344;SDS011;69658;44.498;0.166;2023-07-31T08:35:33;6.60;;;2.50;;
80344;SDS011;69658;44.498;0.166;2023-07-31T08:41:06;5.45;;;2.10;;
80344;SDS011;69658;44.498;0.166;2023-07-31T08:46:39;8.65;;;3.30;;
80344;SDS011;69658;44.498;0.166;2023-07-31T08:52:11;10.85;;;2.90;;
80344;SDS011;69658;44.498;0.166;2023-07-31T08:57:43;13.97;;;2.43;;
80344;SDS011;69658;44.498;0.166;2023-07-31T09:03:17;6.50;;;2.03;;
80344;SDS011;69658;44.498;0.166;2023-07-31T09:08:49;4.90;;;1.70;;
80344;SDS011;69658;44.498;0.166;2023-07-31T09:14:21;3.40;;;1.45;;
80344;SDS011;69658;44.498;0.166;2023-07-31T09:19:54;5.30;;;1.80;;
80344;SDS011;69658;44.498;0.166;2023-07-31T09:25:26;3.90;;;1.57;;
80344;SDS011;69658;44.498;0.166;2023-07-31T09:30:58;2.83;;;1.50;;
80344;SDS011;69658;44.498;0.166;2023-07-31T09:36:30;9.03;;;2.33;;
80344;SDS011;69658;44.498;0.166;2023-07-31T09:42:02;5.60;;;2.13;;
80344;SDS011;69658;44.498;0.166;2023-07-31T09:47:34;5.20;;;2.20;;
80344;SDS011;69658;44.498;0.166;2023-07-31T09:53:06;4.70;;;2.17;;
80344;SDS011;69658;44.498;0.166;2023-07-31T09:58:38;6.95;;;2.00;;
80344;SDS011;69658;44.498;0.166;2023-07-31T10:04:12;6.23;;;2.50;;
80344;SDS011;69658;44.498;0.166;2023-07-31T10:09:45;4.75;;;2.10;;
80344;SDS011;69658;44.498;0.166;2023-07-31T10:15:17;5.97;;;2.20;;
80344;SDS011;69658;44.498;0.166;2023-07-31T10:20:49;5.10;;;2.50;;
80344;SDS011;69658;44.498;0.166;2023-07-31T10:26:21;5.33;;;2.00;;
80344;SDS011;69658;44.498;0.166;2023-07-31T10:31:54;9.80;;;2.17;;
80344;SDS011;69658;44.498;0.166;2023-07-31T10:37:28;3.57;;;1.83;;
80344;SDS011;69658;44.498;0.166;2023-07-31T10:42:59;11.00;;;2.40;;
80344;SDS011;69658;44.498;0.166;2023-07-31T10:48:33;4.03;;;1.80;;
80344;SDS011;69658;44.498;0.166;2023-07-31T10:54:11;4.53;;;2.10;;
80344;SDS011;69658;44.498;0.166;2023-07-31T10:59:35;5.80;;;2.00;;
80344;SDS011;69658;44.498;0.166;2023-07-31T11:05:07;5.23;;;1.87;;
80344;SDS011;69658;44.498;0.166;2023-07-31T11:16:12;5.80;;;1.53;;
80344;SDS011;69658;44.498;0.166;2023-07-31T11:21:45;4.80;;;1.67;;
80344;SDS011;69658;44.498;0.166;2023-07-31T11:27:17;3.97;;;1.83;;
80344;SDS011;69658;44.498;0.166;2023-07-31T11:32:49;7.10;;;2.27;;
80344;SDS011;69658;44.498;0.166;2023-07-31T11:38:22;3.93;;;1.67;;
80344;SDS011;69658;44.498;0.166;2023-07-31T11:43:59;6.73;;;1.67;;
80344;SDS011;69658;44.498;0.166;2023-07-31T11:49:27;4.80;;;1.93;;
80344;SDS011;69658;44.498;0.166;2023-07-31T11:55:00;2.83;;;1.23;;
80344;SDS011;69658;44.498;0.166;2023-07-31T12:00:32;3.60;;;1.60;;
80344;SDS011;69658;44.498;0.166;2023-07-31T12:06:06;4.10;;;1.47;;
80344;SDS011;69658;44.498;0.166;2023-07-31T12:11:43;3.67;;;1.70;;
80344;SDS011;69658;44.498;0.166;2023-07-31T12:17:11;6.03;;;2.23;;
80344;SDS011;69658;44.498;0.166;2023-07-31T12:22:44;3.77;;;2.30;;
80344;SDS011;69658;44.498;0.166;2023-07-31T12:28:16;4.50;;;2.00;;
80344;SDS011;69658;44.498;0.166;2023-07-31T12:33:50;2.77;;;1.20;;
80344;SDS011;69658;44.498;0.166;2023-07-31T12:39:22;2.43;;;1.13;;
80344;SDS011;69658;44.498;0.166;2023-07-31T12:44:55;2.17;;;0.80;;
80344;SDS011;69658;44.498;0.166;2023-07-31T12:50:28;3.37;;;1.50;;
80344;SDS011;69658;44.498;0.166;2023-07-31T12:56:02;5.20;;;1.40;;
80344;SDS011;69658;44.498;0.166;2023-07-31T13:01:33;2.83;;;1.80;;
80344;SDS011;69658;44.498;0.166;2023-07-31T13:07:06;3.37;;;1.37;;
80344;SDS011;69658;44.498;0.166;2023-07-31T13:12:40;5.27;;;1.70;;
80344;SDS011;69658;44.498;0.166;2023-07-31T13:18:12;4.77;;;1.50;;
80344;SDS011;69658;44.498;0.166;2023-07-31T13:23:45;4.87;;;1.70;;
80344;SDS011;69658;44.498;0.166;2023-07-31T13:29:17;2.33;;;1.43;;
80344;SDS011;69658;44.498;0.166;2023-07-31T13:34:51;2.53;;;1.90;;
80344;SDS011;69658;44.498;0.166;2023-07-31T13:40:24;4.07;;;1.80;;
80344;SDS011;69658;44.498;0.166;2023-07-31T13:45:56;3.37;;;1.80;;
80344;SDS011;69658;44.498;0.166;2023-07-31T13:51:29;2.70;;;1.53;;
80344;SDS011;69658;44.498;0.166;2023-07-31T13:57:02;3.80;;;2.20;;
80344;SDS011;69658;44.498;0.166;2023-07-31T14:02:34;5.90;;;1.97;;
80344;SDS011;69658;44.498;0.166;2023-07-31T14:08:06;5.13;;;2.10;;
80344;SDS011;69658;44.498;0.166;2023-07-31T14:13:39;18.27;;;2.17;;
80344;SDS011;69658;44.498;0.166;2023-07-31T14:19:11;2.73;;;1.90;;
80344;SDS011;69658;44.498;0.166;2023-07-31T14:24:45;2.80;;;1.60;;
80344;SDS011;69658;44.498;0.166;2023-07-31T14:30:19;4.63;;;2.30;;
80344;SDS011;69658;44.498;0.166;2023-07-31T14:35:49;3.17;;;1.90;;
80344;SDS011;69658;44.498;0.166;2023-07-31T14:41:22;4.13;;;1.70;;
80344;SDS011;69658;44.498;0.166;2023-07-31T14:46:55;3.90;;;1.87;;
80344;SDS011;69658;44.498;0.166;2023-07-31T14:52:26;2.27;;;1.30;;
80344;SDS011;69658;44.498;0.166;2023-07-31T14:57:59;4.43;;;1.90;;
80344;SDS011;69658;44.498;0.166;2023-07-31T15:03:31;4.03;;;2.13;;
80344;SDS011;69658;44.498;0.166;2023-07-31T15:09:04;8.23;;;2.50;;
80344;SDS011;69658;44.498;0.166;2023-07-31T15:14:36;3.47;;;1.93;;
80344;SDS011;69658;44.498;0.166;2023-07-31T15:20:09;2.97;;;2.10;;
80344;SDS011;69658;44.498;0.166;2023-07-31T15:25:41;3.63;;;2.10;;
80344;SDS011;69658;44.498;0.166;2023-07-31T15:31:13;2.90;;;1.87;;
80344;SDS011;69658;44.498;0.166;2023-07-31T15:36:45;4.80;;;1.97;;
80344;SDS011;69658;44.498;0.166;2023-07-31T15:42:18;3.20;;;2.57;;
80344;SDS011;69658;44.498;0.166;2023-07-31T15:47:50;3.80;;;2.53;;
80344;SDS011;69658;44.498;0.166;2023-07-31T15:53:22;5.20;;;2.40;;
80344;SDS011;69658;44.498;0.166;2023-07-31T15:58:58;6.73;;;2.43;;
80344;SDS011;69658;44.498;0.166;2023-07-31T16:04:27;4.70;;;2.07;;
80344;SDS011;69658;44.498;0.166;2023-07-31T16:10:00;2.43;;;2.03;;
80344;SDS011;69658;44.498;0.166;2023-07-31T16:15:33;2.90;;;1.80;;
80344;SDS011;69658;44.498;0.166;2023-07-31T16:21:06;3.13;;;2.10;;
80344;SDS011;69658;44.498;0.166;2023-07-31T16:26:40;3.17;;;1.80;;
80344;SDS011;69658;44.498;0.166;2023-07-31T16:32:12;4.07;;;2.50;;
80344;SDS011;69658;44.498;0.166;2023-07-31T16:37:47;3.53;;;2.00;;
80344;SDS011;69658;44.498;0.166;2023-07-31T16:43:17;4.03;;;1.80;;
80344;SDS011;69658;44.498;0.166;2023-07-31T16:48:49;3.20;;;2.00;;
80344;SDS011;69658;44.498;0.166;2023-07-31T16:54:22;3.10;;;2.00;;
80344;SDS011;69658;44.498;0.166;2023-07-31T16:59:53;3.23;;;2.13;;
80344;SDS011;69658;44.498;0.166;2023-07-31T17:05:27;2.13;;;1.60;;
80344;SDS011;69658;44.498;0.166;2023-07-31T17:11:00;1.80;;;1.23;;
80344;SDS011;69658;44.498;0.166;2023-07-31T17:16:34;3.03;;;1.57;;
80344;SDS011;69658;44.498;0.166;2023-07-31T17:22:06;2.47;;;1.37;;
80344;SDS011;69658;44.498;0.166;2023-07-31T17:27:39;3.53;;;1.70;;
80344;SDS011;69658;44.498;0.166;2023-07-31T17:33:11;2.43;;;1.60;;
80344;SDS011;69658;44.498;0.166;2023-07-31T17:38:42;3.37;;;1.57;;
80344;SDS011;69658;44.498;0.166;2023-07-31T17:44:15;4.40;;;1.80;;
80344;SDS011;69658;44.498;0.166;2023-07-31T17:49:48;2.43;;;1.50;;
80344;SDS011;69658;44.498;0.166;2023-07-31T17:55:21;2.90;;;1.60;;
80344;SDS011;69658;44.498;0.166;2023-07-31T18:00:53;2.33;;;1.57;;
80344;SDS011;69658;44.498;0.166;2023-07-31T18:06:25;1.93;;;1.20;;
80344;SDS011;69658;44.498;0.166;2023-07-31T18:11:58;4.47;;;1.27;;
80344;SDS011;69658;44.498;0.166;2023-07-31T18:17:30;3.03;;;1.67;;
80344;SDS011;69658;44.498;0.166;2023-07-31T18:23:03;1.83;;;1.20;;
80344;SDS011;69658;44.498;0.166;2023-07-31T18:28:36;1.90;;;1.30;;
80344;SDS011;69658;44.498;0.166;2023-07-31T18:34:09;3.50;;;1.50;;
80344;SDS011;69658;44.498;0.166;2023-07-31T18:39:42;3.03;;;1.50;;
80344;SDS011;69658;44.498;0.166;2023-07-31T18:45:15;1.57;;;1.17;;
80344;SDS011;69658;44.498;0.166;2023-07-31T18:50:48;2.13;;;1.60;;
80344;SDS011;69658;44.498;0.166;2023-07-31T18:56:21;1.43;;;1.20;;
80344;SDS011;69658;44.498;0.166;2023-07-31T19:01:54;2.67;;;1.00;;
80344;SDS011;69658;44.498;0.166;2023-07-31T19:07:27;1.33;;;1.00;;
80344;SDS011;69658;44.498;0.166;2023-07-31T19:13:00;1.97;;;1.10;;
80344;SDS011;69658;44.498;0.166;2023-07-31T19:18:34;3.80;;;2.33;;
80344;SDS011;69658;44.498;0.166;2023-07-31T19:24:06;3.67;;;1.60;;
80344;SDS011;69658;44.498;0.166;2023-07-31T19:29:39;2.30;;;1.47;;
80344;SDS011;69658;44.498;0.166;2023-07-31T19:35:14;3.33;;;1.40;;
80344;SDS011;69658;44.498;0.166;2023-07-31T19:40:46;3.13;;;0.97;;
80344;SDS011;69658;44.498;0.166;2023-07-31T19:46:19;3.97;;;1.17;;
80344;SDS011;69658;44.498;0.166;2023-07-31T19:51:52;2.93;;;0.73;;
80344;SDS011;69658;44.498;0.166;2023-07-31T19:57:25;3.37;;;1.20;;
80344;SDS011;69658;44.498;0.166;2023-07-31T20:02:59;3.03;;;1.10;;
80344;SDS011;69658;44.498;0.166;2023-07-31T20:08:32;4.70;;;1.27;;
80344;SDS011;69658;44.498;0.166;2023-07-31T20:14:04;2.97;;;1.70;;
80344;SDS011;69658;44.498;0.166;2023-07-31T20:19:37;5.30;;;1.73;;
80344;SDS011;69658;44.498;0.166;2023-07-31T20:25:08;4.77;;;1.97;;
80344;SDS011;69658;44.498;0.166;2023-07-31T20:30:40;4.13;;;1.57;;
80344;SDS011;69658;44.498;0.166;2023-07-31T20:36:13;4.20;;;1.63;;
80344;SDS011;69658;44.498;0.166;2023-07-31T20:41:50;4.57;;;1.97;;
80344;SDS011;69658;44.498;0.166;2023-07-31T20:47:20;2.70;;;1.77;;
80344;SDS011;69658;44.498;0.166;2023-07-31T20:52:54;2.67;;;1.87;;
80344;SDS011;69658;44.498;0.166;2023-07-31T20:58:26;2.83;;;1.50;;
80344;SDS011;69658;44.498;0.166;2023-07-31T21:03:59;2.83;;;1.50;;
80344;SDS011;69658;44.498;0.166;2023-07-31T21:09:33;1.67;;;1.40;;
80344;SDS011;69658;44.498;0.166;2023-07-31T21:15:05;2.67;;;1.70;;
80344;SDS011;69658;44.498;0.166;2023-07-31T21:20:37;2.10;;;1.30;;
80344;SDS011;69658;44.498;0.166;2023-07-31T21:26:09;8.17;;;2.13;;
80344;SDS011;69658;44.498;0.166;2023-07-31T21:31:42;2.60;;;1.47;;
80344;SDS011;69658;44.498;0.166;2023-07-31T21:37:16;2.83;;;1.30;;
80344;SDS011;69658;44.498;0.166;2023-07-31T21:42:48;4.47;;;1.30;;
80344;SDS011;69658;44.498;0.166;2023-07-31T21:48:22;2.60;;;1.47;;
80344;SDS011;69658;44.498;0.166;2023-07-31T21:53:54;3.30;;;1.50;;
80344;SDS011;69658;44.498;0.166;2023-07-31T21:59:27;4.37;;;1.47;;
80344;SDS011;69658;44.498;0.166;2023-07-31T22:04:59;3.93;;;1.20;;
80344;SDS011;69658;44.498;0.166;2023-07-31T22:10:32;4.10;;;1.80;;
80344;SDS011;69658;44.498;0.166;2023-07-31T22:16:05;2.97;;;1.67;;
80344;SDS011;69658;44.498;0.166;2023-07-31T22:21:39;2.20;;;1.50;;
80344;SDS011;69658;44.498;0.166;2023-07-31T22:27:12;1.87;;;1.30;;
80344;SDS011;69658;44.498;0.166;2023-07-31T22:32:45;2.83;;;1.03;;
80344;SDS011;69658;44.498;0.166;2023-07-31T22:38:17;2.87;;;1.47;;
80344;SDS011;69658;44.498;0.166;2023-07-31T22:43:50;1.60;;;1.20;;
80344;SDS011;69658;44.498;0.166;2023-07-31T22:49:24;2.20;;;1.37;;
80344;SDS011;69658;44.498;0.166;2023-07-31T22:54:56;2.73;;;1.20;;
80344;SDS011;69658;44.498;0.166;2023-07-31T23:00:28;2.23;;;1.43;;
80344;SDS011;69658;44.498;0.166;2023-07-31T23:06:01;3.63;;;1.10;;
80344;SDS011;69658;44.498;0.166;2023-07-31T23:11:33;2.43;;;1.30;;
80344;SDS011;69658;44.498;0.166;2023-07-31T23:17:06;3.33;;;1.10;;
80344;SDS011;69658;44.498;0.166;2023-07-31T23:22:38;5.13;;;1.70;;
80344;SDS011;69658;44.498;0.166;2023-07-31T23:28:10;3.57;;;1.40;;
80344;SDS011;69658;44.498;0.166;2023-07-31T23:33:43;3.33;;;1.37;;
80344;SDS011;69658;44.498;0.166;2023-07-31T23:39:16;3.70;;;1.30;;
80344;SDS011;69658;44.498;0.166;2023-07-31T23:44:49;1.97;;;1.40;;
80344;SDS011;69658;44.498;0.166;2023-07-31T23:50:21;3.70;;;1.50;;
80344;SDS011;69658;44.498;0.166;2023-07-31T23:55:54;3.57;;;1.57;;
